Terminal Aerodrome Forecast
Issued by NWS Kansas City/Pleasant Hill, MO

Home | Current Version | Previous Version | Graphics & Text | Print | Product List | Glossary On
Versions: 1 2 3 4 5 6 7 8 9 10 11 12 13 14 15 16 17 18 19 20 21
000
FTUS43 KEAX 220520
TAFMCI
TAF
KMCI 220520Z 2206/2306 16009KT 5SM -TSRA OVC035CB
      TEMPO 2206/2209 2SM TSRA BR OVC015CB
     FM220900 24009KT P6SM VCTS OVC030CB
     FM221100 35005KT P6SM BKN030
     FM221500 35012KT P6SM FEW030 SCT250=

USA.gov is the U.S. government's official web portal to all federal, state and local government web resources and services.